createdAt,value
2023-05-05T00:01:58.727Z,100140.80
2023-05-05T00:04:49.325Z,100134.48
2023-05-05T00:07:42.367Z,100131.52
2023-05-05T00:10:36.864Z,100130.47
2023-05-05T00:13:30.831Z,100126.08
2023-05-05T00:16:23.513Z,100126.70
2023-05-05T00:19:18.924Z,100123.44
2023-05-05T00:22:10.122Z,100111.31
2023-05-05T00:25:13.077Z,100103.66
2023-05-05T00:28:03.699Z,100101.35
2023-05-05T00:30:56.856Z,100101.66
2023-05-05T00:33:47.458Z,100104.41
2023-05-05T00:36:38.129Z,100102.92
2023-05-05T00:39:30.906Z,100094.89
2023-05-05T00:42:21.496Z,100089.67
2023-05-05T00:45:13.638Z,100086.12
2023-05-05T00:48:05.193Z,100084.89
2023-05-05T00:51:06.616Z,100083.45
2023-05-05T00:54:00.639Z,100084.78
2023-05-05T00:56:51.469Z,100081.58
2023-05-05T00:59:42.265Z,100081.95
2023-05-05T01:02:35.651Z,100082.30
2023-05-05T01:05:27.527Z,100084.32
2023-05-05T01:08:28.765Z,100081.13
2023-05-05T01:11:33.881Z,100085.03
2023-05-05T01:14:39.800Z,100086.88
2023-05-05T01:17:35.082Z,100091.13
2023-05-05T01:20:30.597Z,100095.82
2023-05-05T01:23:30.305Z,100100.02
2023-05-05T01:26:43.092Z,100103.84
2023-05-05T01:29:39.745Z,100107.00
2023-05-05T01:32:33.195Z,100110.02
2023-05-05T01:35:27.995Z,100114.89
2023-05-05T01:38:22.985Z,100117.48
2023-05-05T01:41:16.159Z,100121.89
2023-05-05T01:44:11.004Z,100119.84
2023-05-05T01:47:05.973Z,100120.08
2023-05-05T01:49:56.613Z,100121.59
2023-05-05T01:53:01.261Z,100125.13
2023-05-05T01:55:53.185Z,100129.15
2023-05-05T01:58:47.510Z,100131.63
2023-05-05T02:01:41.726Z,100134.52
2023-05-05T02:04:33.923Z,100131.64
2023-05-05T02:07:28.912Z,100132.28
2023-05-05T02:10:29.364Z,100132.85
2023-05-05T02:13:23.206Z,100138.08
2023-05-05T02:16:19.198Z,100140.98
2023-05-05T02:19:22.797Z,100141.05
2023-05-05T02:22:15.637Z,100145.92
2023-05-05T02:25:09.960Z,100148.91
2023-05-05T02:28:02.034Z,100156.14
2023-05-05T02:30:57.081Z,100165.05
2023-05-05T02:33:51.535Z,100163.77
2023-05-05T02:36:53.573Z,100173.73
2023-05-05T02:39:59.743Z,100177.40
2023-05-05T02:42:55.309Z,100182.69
2023-05-05T02:45:50.635Z,100186.11
2023-05-05T02:48:44.970Z,100191.86
2023-05-05T02:51:45.002Z,100192.89
2023-05-05T02:54:43.762Z,100190.95
2023-05-05T02:57:58.806Z,100192.39
2023-05-05T03:00:57.065Z,100195.98
2023-05-05T03:03:48.705Z,100195.25
2023-05-05T03:06:43.096Z,100192.55
2023-05-05T03:09:46.116Z,100199.67
2023-05-05T03:12:45.522Z,100202.30
2023-05-05T03:15:45.354Z,100204.34
2023-05-05T03:18:39.549Z,100204.82
2023-05-05T03:21:30.550Z,100207.86
2023-05-05T03:24:21.999Z,100205.08
2023-05-05T03:27:21.781Z,100200.73
2023-05-05T03:30:16.096Z,100202.19
2023-05-05T03:33:21.257Z,100203.88
2023-05-05T03:36:11.991Z,100205.17
2023-05-05T03:39:05.248Z,100210.73
2023-05-05T03:41:57.420Z,100213.59
2023-05-05T03:44:49.364Z,100214.73
2023-05-05T03:47:40.662Z,100212.35
2023-05-05T03:50:35.107Z,100210.71
2023-05-05T03:53:26.650Z,100215.02
2023-05-05T03:56:18.462Z,100214.52
2023-05-05T03:59:29.351Z,100215.47
2023-05-05T04:02:40.194Z,100210.70
2023-05-05T04:05:31.739Z,100213.11
2023-05-05T04:08:24.201Z,100214.56
2023-05-05T04:11:15.015Z,100213.25
2023-05-05T04:14:06.004Z,100210.86
2023-05-05T04:16:56.926Z,100210.39
2023-05-05T04:19:57.533Z,100218.45
2023-05-05T04:22:49.398Z,100215.11
2023-05-05T04:25:53.091Z,100219.95
2023-05-05T04:28:44.315Z,100212.81
2023-05-05T04:31:35.473Z,100213.55
2023-05-05T04:34:32.215Z,100211.61
2023-05-05T04:37:28.834Z,100218.14
2023-05-05T04:40:20.629Z,100222.69
2023-05-05T04:43:21.220Z,100226.19
2023-05-05T04:46:15.311Z,100228.84
2023-05-05T04:49:06.144Z,100232.73
2023-05-05T04:51:59.473Z,100235.18
2023-05-05T04:54:54.109Z,100244.16
2023-05-05T04:58:06.487Z,100249.89
2023-05-05T05:01:20.369Z,100258.95
2023-05-05T05:04:28.439Z,100259.89
2023-05-05T05:07:25.981Z,100265.05
2023-05-05T05:10:28.730Z,100269.48
2023-05-05T05:13:39.818Z,100271.14
2023-05-05T05:16:36.663Z,100273.76
2023-05-05T05:19:35.021Z,100277.86
2023-05-05T05:22:29.318Z,100277.77
2023-05-05T05:25:25.399Z,100283.97
2023-05-05T05:28:16.698Z,100284.70
2023-05-05T05:31:14.267Z,100289.89
2023-05-05T05:34:05.275Z,100294.11
2023-05-05T05:37:03.864Z,100300.28
2023-05-05T05:39:57.203Z,100303.30
2023-05-05T05:42:51.162Z,100306.96
2023-05-05T05:45:45.566Z,100307.15
2023-05-05T05:48:36.410Z,100310.45
2023-05-05T05:51:28.127Z,100309.25
2023-05-05T05:54:18.913Z,100312.41
2023-05-05T05:57:10.293Z,100320.10
2023-05-05T06:00:01.957Z,100317.73
2023-05-05T06:03:02.646Z,100309.91
2023-05-05T06:06:05.364Z,100318.22
2023-05-05T06:08:58.472Z,100325.63
2023-05-05T06:12:08.135Z,100331.66
2023-05-05T06:15:04.297Z,100334.80
2023-05-05T06:17:58.321Z,100334.86
2023-05-05T06:20:52.491Z,100339.42
2023-05-05T06:23:52.559Z,100338.35
2023-05-05T06:26:43.787Z,100342.60
2023-05-05T06:29:34.725Z,100348.94
2023-05-05T06:32:26.117Z,100350.89
2023-05-05T06:35:17.408Z,100355.48
2023-05-05T06:38:08.121Z,100360.46
2023-05-05T06:40:58.765Z,100366.11
2023-05-05T06:43:52.457Z,100368.15
2023-05-05T06:46:45.584Z,100372.78
2023-05-05T06:49:39.050Z,100372.74
2023-05-05T06:52:29.905Z,100380.65
2023-05-05T06:55:25.164Z,100382.29
2023-05-05T06:58:15.849Z,100380.50
2023-05-05T07:01:07.270Z,100383.28
2023-05-05T07:03:58.210Z,100389.94
2023-05-05T07:06:48.802Z,100391.75
2023-05-05T07:09:39.433Z,100396.97
2023-05-05T07:12:30.970Z,100396.96
2023-05-05T07:15:29.903Z,100401.41
2023-05-05T07:18:21.710Z,100401.66
2023-05-05T07:21:12.784Z,100396.57
2023-05-05T07:24:03.648Z,100396.96
2023-05-05T07:26:54.432Z,100401.29
2023-05-05T07:29:45.197Z,100404.83
2023-05-05T07:32:36.034Z,100409.16
2023-05-05T07:35:26.599Z,100410.16
2023-05-05T07:38:17.373Z,100414.36
2023-05-05T07:41:08.284Z,100413.87
2023-05-05T07:43:58.798Z,100412.31
2023-05-05T07:46:49.373Z,100415.08
2023-05-05T07:49:40.448Z,100419.18
2023-05-05T07:52:44.944Z,100419.69
2023-05-05T07:55:40.405Z,100418.23
2023-05-05T07:58:31.088Z,100427.36
2023-05-05T08:01:21.855Z,100430.33
2023-05-05T08:04:12.357Z,100434.36
2023-05-05T08:07:02.919Z,100434.14
2023-05-05T08:09:53.827Z,100425.48
2023-05-05T08:12:44.305Z,100426.20
2023-05-05T08:15:34.792Z,100429.48
2023-05-05T08:18:25.133Z,100431.64
2023-05-05T08:21:15.648Z,100439.90
2023-05-05T08:24:06.136Z,100440.88
2023-05-05T08:26:57.855Z,100448.20
2023-05-05T08:29:48.403Z,100448.83
2023-05-05T08:32:39.585Z,100451.29
2023-05-05T08:35:30.102Z,100458.61
2023-05-05T08:38:20.587Z,100458.64
2023-05-05T08:41:14.338Z,100465.07
2023-05-05T08:44:04.996Z,100468.17
2023-05-05T08:46:56.156Z,100465.27
2023-05-05T08:49:47.665Z,100466.44
2023-05-05T08:52:53.145Z,100465.36
2023-05-05T08:55:47.576Z,100467.44
2023-05-05T08:58:40.724Z,100472.52
2023-05-05T09:01:33.600Z,100474.34
2023-05-05T09:04:24.257Z,100480.50
2023-05-05T09:07:14.899Z,100479.33
2023-05-05T09:10:06.530Z,100484.21
2023-05-05T09:12:58.718Z,100482.85
2023-05-05T09:15:49.330Z,100472.46
2023-05-05T09:18:41.221Z,100470.54
2023-05-05T09:21:32.495Z,100469.78
2023-05-05T09:24:23.205Z,100470.83
2023-05-05T09:27:23.730Z,100470.83
2023-05-05T09:30:16.104Z,100466.38
2023-05-05T09:33:06.805Z,100466.20
2023-05-05T09:35:57.569Z,100472.77
2023-05-05T09:39:04.871Z,100481.16
2023-05-05T09:41:55.563Z,100478.29
2023-05-05T09:44:46.075Z,100481.45
2023-05-05T09:47:37.373Z,100479.94
2023-05-05T09:50:30.887Z,100480.08
2023-05-05T09:53:21.436Z,100480.67
2023-05-05T09:56:12.065Z,100470.95
2023-05-05T09:59:11.985Z,100465.69
2023-05-05T10:02:12.984Z,100468.90
2023-05-05T10:05:10.530Z,100469.63
2023-05-05T10:08:12.937Z,100472.36
2023-05-05T10:11:06.521Z,100472.92
2023-05-05T10:13:57.174Z,100473.69
2023-05-05T10:16:50.934Z,100474.21
2023-05-05T10:19:41.790Z,100467.79
2023-05-05T10:22:35.396Z,100464.54
2023-05-05T10:25:31.216Z,100462.31
2023-05-05T10:28:24.636Z,100459.20
2023-05-05T10:31:25.748Z,100466.52
2023-05-05T10:34:22.491Z,100467.84
2023-05-05T10:37:12.790Z,100467.42
2023-05-05T10:40:03.675Z,100457.31
2023-05-05T10:42:55.518Z,100458.11
2023-05-05T10:45:46.332Z,100459.54
2023-05-05T10:48:43.869Z,100455.77
2023-05-05T10:51:42.440Z,100458.73
2023-05-05T10:54:37.847Z,100461.01
2023-05-05T10:57:30.071Z,100470.95
2023-05-05T11:00:38.276Z,100476.05
2023-05-05T11:03:29.151Z,100473.57
2023-05-05T11:06:19.848Z,100473.86
2023-05-05T11:09:23.790Z,100477.67
2023-05-05T11:12:16.141Z,100479.24
2023-05-05T11:15:26.242Z,100477.14
2023-05-05T11:18:39.195Z,100480.11
2023-05-05T11:21:29.631Z,100480.17
2023-05-05T11:24:29.594Z,100476.94
2023-05-05T11:27:19.929Z,100472.30
2023-05-05T11:30:12.343Z,100465.41
2023-05-05T11:33:20.354Z,100461.30
2023-05-05T11:36:11.781Z,100456.21
2023-05-05T11:39:20.499Z,100458.51
2023-05-05T11:42:19.214Z,100452.69
2023-05-05T11:45:23.307Z,100454.18
2023-05-05T11:48:28.741Z,100456.94
2023-05-05T11:51:19.860Z,100459.45
2023-05-05T11:54:10.303Z,100452.92
2023-05-05T11:57:02.153Z,100441.50
2023-05-05T11:59:54.945Z,100443.52
2023-05-05T12:02:46.359Z,100431.15
2023-05-05T12:05:37.274Z,100432.98
2023-05-05T12:08:28.612Z,100438.80
2023-05-05T12:11:21.901Z,100440.77
2023-05-05T12:14:12.930Z,100440.98
2023-05-05T12:17:08.393Z,100437.49
2023-05-05T12:19:59.024Z,100438.39
2023-05-05T12:22:49.774Z,100446.92
2023-05-05T12:25:41.180Z,100447.84
2023-05-05T12:28:43.826Z,100449.68
2023-05-05T12:31:38.270Z,100454.17
2023-05-05T12:34:28.786Z,100451.20
2023-05-05T12:37:20.291Z,100449.00
2023-05-05T12:40:31.429Z,100436.29
2023-05-05T12:43:29.031Z,100433.87
2023-05-05T12:46:19.513Z,100434.88
2023-05-05T12:49:10.417Z,100436.59
2023-05-05T12:52:01.575Z,100440.36
2023-05-05T12:54:56.308Z,100434.52
2023-05-05T12:58:04.787Z,100429.60
2023-05-05T13:01:08.492Z,100434.02
2023-05-05T13:04:13.063Z,100434.05
2023-05-05T13:07:13.505Z,100438.20
2023-05-05T13:10:11.331Z,100437.12
2023-05-05T13:13:02.603Z,100438.19
2023-05-05T13:15:53.413Z,100429.79
2023-05-05T13:18:47.397Z,100429.95
2023-05-05T13:21:38.075Z,100432.59
2023-05-05T13:24:42.388Z,100433.23
2023-05-05T13:27:39.172Z,100428.55
2023-05-05T13:30:29.923Z,100427.70
2023-05-05T13:33:20.362Z,100426.02
2023-05-05T13:36:11.347Z,100418.35
2023-05-05T13:39:02.088Z,100424.60
2023-05-05T13:41:52.681Z,100421.60
2023-05-05T13:44:43.272Z,100417.98
2023-05-05T13:47:33.880Z,100425.63
2023-05-05T13:50:24.635Z,100429.96
2023-05-05T13:53:15.230Z,100431.00
2023-05-05T13:56:06.009Z,100425.97
2023-05-05T13:58:56.644Z,100425.32
2023-05-05T14:01:47.115Z,100422.20
2023-05-05T14:04:37.632Z,100421.23
2023-05-05T14:07:28.366Z,100423.54
2023-05-05T14:10:19.117Z,100424.53
2023-05-05T14:13:09.694Z,100427.62
2023-05-05T14:16:00.374Z,100426.98
2023-05-05T14:18:51.041Z,100424.50
2023-05-05T14:21:41.575Z,100425.88
2023-05-05T14:24:32.110Z,100419.24
2023-05-05T14:27:22.846Z,100414.56
2023-05-05T14:30:14.088Z,100404.80
2023-05-05T14:33:04.727Z,100405.54
2023-05-05T14:35:55.256Z,100405.69
2023-05-05T14:38:45.924Z,100403.04
2023-05-05T14:41:36.511Z,100402.09
2023-05-05T14:44:27.402Z,100401.79
2023-05-05T14:47:17.944Z,100402.62
2023-05-05T14:50:09.996Z,100405.26
2023-05-05T14:53:00.770Z,100413.29
2023-05-05T14:55:51.402Z,100412.09
2023-05-05T14:58:41.981Z,100405.61
2023-05-05T15:01:32.568Z,100401.05
2023-05-05T15:04:23.114Z,100400.69
2023-05-05T15:07:13.540Z,100402.44
2023-05-05T15:10:05.005Z,100401.05
2023-05-05T15:12:56.214Z,100407.72
2023-05-05T15:15:46.698Z,100407.90
2023-05-05T15:18:37.642Z,100410.52
2023-05-05T15:21:28.486Z,100413.46
2023-05-05T15:24:18.955Z,100410.61
2023-05-05T15:27:09.588Z,100405.87
2023-05-05T15:30:00.059Z,100408.10
2023-05-05T15:32:51.329Z,100406.48
2023-05-05T15:35:41.828Z,100407.72
2023-05-05T15:38:32.320Z,100414.42
2023-05-05T15:41:22.953Z,100416.86
2023-05-05T15:44:14.283Z,100412.35
2023-05-05T15:47:04.955Z,100414.59
2023-05-05T15:49:55.508Z,100418.98
2023-05-05T15:52:48.059Z,100413.20
2023-05-05T15:55:40.468Z,100415.18
2023-05-05T15:58:30.989Z,100416.48
2023-05-05T16:01:21.774Z,100420.30
2023-05-05T16:04:12.677Z,100426.63
2023-05-05T16:07:04.265Z,100422.46
2023-05-05T16:09:54.707Z,100418.75
2023-05-05T16:12:45.231Z,100420.91
2023-05-05T16:15:35.914Z,100419.72
2023-05-05T16:18:26.893Z,100426.63
2023-05-05T16:21:18.161Z,100433.19
2023-05-05T16:24:09.456Z,100433.63
2023-05-05T16:27:00.279Z,100429.34
2023-05-05T16:29:51.219Z,100430.30
2023-05-05T16:32:41.981Z,100432.05
2023-05-05T16:35:32.559Z,100428.80
2023-05-05T16:38:23.172Z,100428.55
2023-05-05T16:41:14.003Z,100429.29
2023-05-05T16:44:04.642Z,100428.05
2023-05-05T16:46:55.293Z,100427.09
2023-05-05T16:49:45.841Z,100433.27
2023-05-05T16:52:37.191Z,100436.49
2023-05-05T16:55:27.747Z,100439.92
2023-05-05T16:58:19.911Z,100437.35
2023-05-05T17:01:10.861Z,100445.44
2023-05-05T17:04:02.691Z,100448.73
2023-05-05T17:06:55.076Z,100450.84
2023-05-05T17:09:45.669Z,100450.52
2023-05-05T17:12:36.245Z,100460.94
2023-05-05T17:15:27.284Z,100463.95
2023-05-05T17:18:20.256Z,100466.57
2023-05-05T17:21:10.383Z,100475.59
2023-05-05T17:24:01.508Z,100473.15
2023-05-05T17:26:52.534Z,100476.20
2023-05-05T17:29:43.506Z,100472.88
2023-05-05T17:32:34.034Z,100475.66
2023-05-05T17:35:24.552Z,100479.92
2023-05-05T17:38:14.987Z,100480.15
2023-05-05T17:41:06.739Z,100480.00
2023-05-05T17:43:57.481Z,100488.34
2023-05-05T17:46:48.241Z,100485.41
2023-05-05T17:49:38.719Z,100485.69
2023-05-05T17:52:29.271Z,100489.77
2023-05-05T17:55:19.906Z,100492.63
2023-05-05T17:58:10.644Z,100493.48
2023-05-05T18:01:01.224Z,100497.09
2023-05-05T18:03:51.930Z,100499.77
2023-05-05T18:06:42.495Z,100501.98
2023-05-05T18:09:33.001Z,100509.55
2023-05-05T18:12:23.639Z,100513.42
2023-05-05T18:15:14.420Z,100514.94
2023-05-05T18:18:05.206Z,100518.70
2023-05-05T18:20:55.766Z,100517.02
2023-05-05T18:23:49.893Z,100518.70
2023-05-05T18:26:41.502Z,100523.63
2023-05-05T18:29:32.194Z,100523.56
2023-05-05T18:32:23.988Z,100526.52
2023-05-05T18:35:14.635Z,100529.58
2023-05-05T18:38:05.537Z,100531.88
2023-05-05T18:40:55.869Z,100537.91
2023-05-05T18:43:46.350Z,100544.54
2023-05-05T18:46:36.897Z,100546.65
2023-05-05T18:49:29.572Z,100546.61
2023-05-05T18:52:21.962Z,100548.09
2023-05-05T18:55:12.630Z,100550.16
2023-05-05T18:58:03.155Z,100552.42
2023-05-05T19:00:53.767Z,100559.84
2023-05-05T19:03:48.043Z,100561.52
2023-05-05T19:06:38.987Z,100562.14
2023-05-05T19:09:29.645Z,100561.58
2023-05-05T19:12:20.087Z,100558.27
2023-05-05T19:15:13.500Z,100559.10
2023-05-05T19:18:05.783Z,100560.34
2023-05-05T19:20:56.474Z,100559.61
2023-05-05T19:23:47.014Z,100561.77
2023-05-05T19:26:37.510Z,100565.20
2023-05-05T19:29:28.058Z,100571.37
2023-05-05T19:32:18.899Z,100570.89
2023-05-05T19:35:10.781Z,100573.27
2023-05-05T19:38:01.184Z,100579.30
2023-05-05T19:40:51.729Z,100579.07
2023-05-05T19:43:42.238Z,100580.40
2023-05-05T19:46:32.934Z,100576.87
2023-05-05T19:49:23.591Z,100578.09
2023-05-05T19:52:13.977Z,100580.83
2023-05-05T19:55:04.531Z,100582.66
2023-05-05T19:57:54.980Z,100588.52
2023-05-05T20:00:45.264Z,100593.61
2023-05-05T20:03:36.417Z,100597.80
2023-05-05T20:06:28.000Z,100602.27
2023-05-05T20:09:19.024Z,100604.02
2023-05-05T20:12:09.795Z,100609.67
2023-05-05T20:15:00.282Z,100610.85
2023-05-05T20:17:51.106Z,100617.02
2023-05-05T20:20:41.623Z,100620.31
2023-05-05T20:23:35.136Z,100621.08
2023-05-05T20:26:35.024Z,100624.88
2023-05-05T20:29:25.505Z,100624.23
2023-05-05T20:32:17.541Z,100622.02
2023-05-05T20:35:08.926Z,100625.45
2023-05-05T20:37:59.490Z,100628.45
2023-05-05T20:40:50.636Z,100634.34
2023-05-05T20:43:41.173Z,100637.10
2023-05-05T20:46:31.834Z,100639.36
2023-05-05T20:49:22.480Z,100641.16
2023-05-05T20:52:12.953Z,100639.13
2023-05-05T20:55:03.694Z,100638.99
2023-05-05T20:57:54.557Z,100635.95
2023-05-05T21:00:48.271Z,100638.94
2023-05-05T21:03:40.977Z,100635.95
2023-05-05T21:06:33.204Z,100640.26
2023-05-05T21:09:24.212Z,100643.26
2023-05-05T21:12:14.764Z,100645.33
2023-05-05T21:15:05.721Z,100646.23
2023-05-05T21:17:57.288Z,100643.67
2023-05-05T21:20:51.114Z,100645.41
2023-05-05T21:23:47.297Z,100650.58
2023-05-05T21:26:37.864Z,100647.70
2023-05-05T21:29:28.421Z,100646.14
2023-05-05T21:32:19.054Z,100642.77
2023-05-05T21:35:12.150Z,100643.56
2023-05-05T21:38:03.133Z,100647.10
2023-05-05T21:40:58.648Z,100644.81
2023-05-05T21:43:49.482Z,100649.84
2023-05-05T21:46:40.886Z,100650.92
2023-05-05T21:49:31.672Z,100652.42
2023-05-05T21:52:25.230Z,100649.39
2023-05-05T21:55:15.756Z,100649.77
2023-05-05T21:58:06.454Z,100650.60
2023-05-05T22:00:57.013Z,100652.29
2023-05-05T22:03:47.792Z,100657.06
2023-05-05T22:06:38.639Z,100658.55
2023-05-05T22:09:29.443Z,100655.32
2023-05-05T22:12:20.057Z,100659.33
2023-05-05T22:15:11.707Z,100662.80
2023-05-05T22:18:02.465Z,100663.03
2023-05-05T22:20:54.094Z,100663.45
2023-05-05T22:23:44.603Z,100661.08
2023-05-05T22:26:40.129Z,100662.42
2023-05-05T22:29:30.754Z,100660.21
2023-05-05T22:32:21.599Z,100656.91
2023-05-05T22:35:12.613Z,100657.20
2023-05-05T22:38:03.097Z,100658.13
2023-05-05T22:40:53.798Z,100658.75
2023-05-05T22:43:44.374Z,100658.99
2023-05-05T22:46:35.157Z,100653.69
2023-05-05T22:49:26.809Z,100653.83
2023-05-05T22:52:18.154Z,100655.31
2023-05-05T22:55:09.560Z,100659.13
2023-05-05T22:58:00.596Z,100663.08
2023-05-05T23:00:51.208Z,100665.11
2023-05-05T23:03:42.060Z,100665.61
2023-05-05T23:06:32.648Z,100668.23
2023-05-05T23:09:23.286Z,100669.17
2023-05-05T23:12:13.840Z,100671.22
2023-05-05T23:15:08.209Z,100668.48
2023-05-05T23:17:59.074Z,100670.46
2023-05-05T23:20:49.595Z,100672.86
2023-05-05T23:23:40.139Z,100672.12
2023-05-05T23:26:30.790Z,100671.00
2023-05-05T23:29:21.927Z,100667.05
2023-05-05T23:32:12.463Z,100669.16
2023-05-05T23:35:03.122Z,100666.46
2023-05-05T23:37:53.824Z,100664.64
2023-05-05T23:40:44.390Z,100667.54
2023-05-05T23:43:34.967Z,100672.13
2023-05-05T23:46:25.525Z,100673.35
2023-05-05T23:49:16.041Z,100674.23
2023-05-05T23:52:06.697Z,100673.98
2023-05-05T23:54:57.592Z,100676.70
2023-05-05T23:57:48.109Z,100679.60
